Wednesday, March 04, 2015
20:18 UTC
  |  Log In   |  Register Free
Airport Search:

Oroville Municipal Airport
(KOVE)

Oroville Municipal Airport Diagram
No Airport Diagram Available

FAA data valid effective January 08, 2015 - March 05, 2015 (unless otherwise noted).

 
 
 
 
 
 
 
 
 
 
 
 
 
 

Current Aviation Weather for Oroville Municipal Airport (KOVE)

The most recent METAR observation for KOVE was updated at: 2013
METAR Summary (Translated METAR)
KOVE
041953Z AUTO 17006KT 10SM CLR 17/01 A3017 RMK AO2 SLP217 T01670006
KCIC
041947Z 00000KT 80SM SKC 16/M03 A3016
(21.5 nm NW from KOVE)
KBAB
041958Z AUTO 19004KT 9SM CLR 16/05 A3014 RMK AO2 SLP283 T01630050 $
(22.8 nm SE from KOVE)
TAF Summary (Translated TAF)
KBAB
(22.8 nm SE from KOVE)
0419/0601 VRB06KT 9999 SKC QNH3003INS TX20/0521Z TN01/0513Z
  Airport Weather Conditions for KOVE

 Current Weather at OVE
62° F
Fair
South winds at 6.9 mph
OVE NOAA Radar

Pressure: 30.17 in
Humidity: 34%
Wind: South at 6.9 MPH (6 KT)
Dew Point: 33.1°F
Visibility: 10.00 mi


Airport Weather Forecast for KOVE

Translated METAR and TAF for KOVE
Translated METAR for KOVE (2018 UTC 04 March 2015)
found at http://aviationweather.gov/adds/metars/
 
METAR text: KOVE 041953Z AUTO 17006KT 10SM CLR 17/01 A3017 RMK AO2 SLP217 T01670006
Conditions at: KOVE (OROVILLE , CA, US) observed 1953 UTC 04 March 2015
Temperature: 16.7°C (62°F)
Dewpoint: 0.6°C (33°F) [RH = 34%]
Pressure (altimeter): 30.17 inches Hg (1021.8 mb)
[Sea-level pressure: 1021.7 mb]
Winds: from the S (170 degrees) at 7 MPH (6 knots; 3.1 m/s)
Visibility: 10 or more miles (16+ km)
Ceiling: at least 12,000 feet AGL
Clouds: sky clear below 12,000 feet AGL
Weather: automated observation with no human augmentation;
there may or may not be significant weather present at this time
Translated TAF for KOVE

There is no translated TAF available for this airport

Find All Airport Services Find A Hotel Find A Rental Car Find A Golf Course Find A Restaurant $100 Hamburger



FBO's on the Field
FBO Company Facility Photos Services Transportation Aviation Fuel Prices: Prices include tax
Catering Weather Repair Courtesy Rental Type 100LL JetA JetA+ MOGAS 8087
 
Oroville Municipal Airport

This FBO has not yet been rated
FS:Epic
Last Updated: Feb-13
Login to update fuel prices
SS:
Contact Oroville Municipal AirportMore FBO Information
 
Add another FBO Facility Photos Catering Weather Repair Courtesy Rental Type 100LL JetA JetA+ MOGAS 8087
Services Transportation Aviation Fuel Prices: Prices include tax


model-print
model-print
model-print
model-print